Jack T. Moran — WDI7011 — position and weather

sailwx.info

Track history (hours):
 
Tides and Currents Weather Stations Pressure Air Temp Water Temp Dewpoint Dewpoint Depression Visibility Wind Speed Wind Dir Waves Ship Positions

Jack T. Moran

Owner: Moran Towing Corporation, New Canaan, CT. More information available from US FCC via Universal Licensing System and Coast Guard Vessel Documentation Center.

Last reported at 2018-Apr-25 22:43 UTC. Time now 2018-Apr-26 03:24 UTC.
Position N 36°56' W 076°20'.

Length 28 m; draft 5 m.

Type: Tug. MMSI: 367724460.

Date/timePositionNaut miles runAvg speedWind from/ knotsBaromVisibWave heightAir tempDewpointWater temp
2018-Apr-25 22:43N 36°56' W 076°20'0 1.8
2018-Apr-25 22:30N 36°55' W 076°20'0 0.0
2018-Apr-25 22:00N 36°55' W 076°20'1 1.6
2018-Apr-25 21:29N 36°55' W 076°20'1 2.5
2018-Apr-25 20:52N 36°56' W 076°20'1 0.7
2018-Apr-25 20:04N 36°56' W 076°20'3 6.4
2018-Apr-25 19:35N 36°52' W 076°20'1 9.2
2018-Apr-25 19:28N 36°52' W 076°19'3 5.6
2018-Apr-25 19:00N 36°50' W 076°16'0 0.0
2018-Apr-25 18:30N 36°50' W 076°16'0 0.0
2018-Apr-25 18:00N 36°50' W 076°16'0 0.0
2018-Apr-25 17:30N 36°50' W 076°16'0 0.0
2018-Apr-25 17:00N 36°50' W 076°16'0 0.0
2018-Apr-25 16:30N 36°50' W 076°16'0 0.0
2018-Apr-25 16:00N 36°50' W 076°16'0 0.0
2018-Apr-25 15:30N 36°50' W 076°16'0 0.0
2018-Apr-25 15:00N 36°50' W 076°16'0 0.0
2018-Apr-25 14:30N 36°50' W 076°16'0 0.0
2018-Apr-25 14:00N 36°50' W 076°16'0 0.0
2018-Apr-25 13:30N 36°50' W 076°16'0 0.0
2018-Apr-25 13:00N 36°50' W 076°16'0 0.0
2018-Apr-25 12:30N 36°50' W 076°16'0 0.0
2018-Apr-25 12:00N 36°50' W 076°16'3 6.9
2018-Apr-25 11:30N 36°52' W 076°20'0 0.9
2018-Apr-25 11:00N 36°53' W 076°20'2 1.2
2018-Apr-25 09:04N 36°55' W 076°20'0 4.0
2018-Apr-25 08:59N 36°55' W 076°20'2 2.1
2018-Apr-25 08:05N 36°53' W 076°20'0 3.7
2018-Apr-25 08:00N 36°53' W 076°20'1 1.1
2018-Apr-25 07:24N 36°53' W 076°21'1 2.7
2018-Apr-25 07:00N 36°53' W 076°20'0 0.1
2018-Apr-25 06:24N 36°53' W 076°20'0 0.0
2018-Apr-25 05:46N 36°53' W 076°20'0 0.0
2018-Apr-25 05:10N 36°53' W 076°20'0 0.0
2018-Apr-25 05:00N 36°53' W 076°20'0 0.0
2018-Apr-25 00:41N 36°53' W 076°20'0 0.0
2018-Apr-25 00:07N 36°53' W 076°20'0 0.0
2018-Apr-25 00:00N 36°53' W 076°20'0 0.0
2018-Apr-24 23:30N 36°53' W 076°20'0 0.0
2018-Apr-24 23:00N 36°53' W 076°20'0 0.0
2018-Apr-24 22:23N 36°53' W 076°20'0 0.0
2018-Apr-24 22:00N 36°53' W 076°20'0 0.0
2018-Apr-24 21:30N 36°53' W 076°20'0 0.0
2018-Apr-24 20:48N 36°53' W 076°20'0 0.0
2018-Apr-24 20:14N 36°53' W 076°20'1 0.8
2018-Apr-24 19:05N 36°54' W 076°20'1 7.1
2018-Apr-24 19:00N 36°54' W 076°20'2 0.6
2018-Apr-24 15:52N 36°56' W 076°20'0 0.1
2018-Apr-24 15:22N 36°56' W 076°20'0 0.0
2018-Apr-24 14:58N 36°56' W 076°20'0 0.0
2018-Apr-24 14:27N 36°56' W 076°20'0 0.0
2018-Apr-24 13:17N 36°56' W 076°20'0 0.0
2018-Apr-24 12:59N 36°56' W 076°20'0 0.0
2018-Apr-24 12:30N 36°56' W 076°20'0 0.0
2018-Apr-24 11:56N 36°56' W 076°20'0 0.0
2018-Apr-24 09:55N 36°56' W 076°20'0 0.8
2018-Apr-24 09:30N 36°56' W 076°20'0 0.9
2018-Apr-24 09:00N 36°56' W 076°20'1 0.1
2018-Apr-23 23:02N 36°55' W 076°20'1 2.6
2018-Apr-23 22:50N 36°55' W 076°20'0 0.4
2018-Apr-23 22:30N 36°55' W 076°20'0 0.0
2018-Apr-23 22:00N 36°55' W 076°20'1 2.2
2018-Apr-23 21:30N 36°56' W 076°20'0 0.1
2018-Apr-23 17:53N 36°56' W 076°20'3 4.7
2018-Apr-23 17:18N 36°53' W 076°20'1 1.6
2018-Apr-23 16:50N 36°54' W 076°20'1 1.3
2018-Apr-23 16:15N 36°53' W 076°20'1 5.7
2018-Apr-23 16:00N 36°52' W 076°19'2 4.8
2018-Apr-23 15:30N 36°50' W 076°16'0 0.0
2018-Apr-23 15:00N 36°50' W 076°16'0 0.0
2018-Apr-23 14:30N 36°50' W 076°16'0 0.0
2018-Apr-23 14:00N 36°50' W 076°16'0 0.0
2018-Apr-23 13:30N 36°50' W 076°16'0 0.0
2018-Apr-23 13:00N 36°50' W 076°16'0 0.0
2018-Apr-23 12:30N 36°50' W 076°16'0 0.0
2018-Apr-23 12:00N 36°50' W 076°16'1 1.3
2018-Apr-23 11:30N 36°50' W 076°17'4 6.2
2018-Apr-23 10:55N 36°53' W 076°21'0 0.0
2018-Apr-23 10:30N 36°52' W 076°21'0 0.5
2018-Apr-23 10:01N 36°53' W 076°21'2 4.4
2018-Apr-23 09:28N 36°55' W 076°20'2 1.8
2018-Apr-23 08:21N 36°53' W 076°20'3 7.3
2018-Apr-23 08:00N 36°51' W 076°18'1 3.0
2018-Apr-23 07:30N 36°50' W 076°16'0 0.0
2018-Apr-23 07:00N 36°50' W 076°16'0 0.0
2018-Apr-23 06:30N 36°50' W 076°16'0 0.0
2018-Apr-23 06:00N 36°50' W 076°16'0 0.0
2018-Apr-23 05:30N 36°50' W 076°16'0 0.0
2018-Apr-23 05:00N 36°50' W 076°16'0 0.0
2018-Apr-23 04:30N 36°50' W 076°16'0 0.0
2018-Apr-23 04:00N 36°50' W 076°16'0 0.0
2018-Apr-23 03:30N 36°50' W 076°16'0 0.0
2018-Apr-23 03:00N 36°50' W 076°16'0 0.0
2018-Apr-23 02:30N 36°50' W 076°16'0 0.0
2018-Apr-23 02:00N 36°50' W 076°16'0 0.0
2018-Apr-23 01:30N 36°50' W 076°16'0 0.0
2018-Apr-23 01:00N 36°50' W 076°16'0 0.0
2018-Apr-23 00:30N 36°50' W 076°16'0 0.0
2018-Apr-23 00:00N 36°50' W 076°16'0 0.0
2018-Apr-22 23:30N 36°50' W 076°16'0 0.0
2018-Apr-22 23:00N 36°50' W 076°16'0 0.0
2018-Apr-22 22:30N 36°50' W 076°16'0 0.0
2018-Apr-22 22:00N 36°50' W 076°16'2 4.1
2018-Apr-22 21:29N 36°51' W 076°19'2 2.2
2018-Apr-22 20:44N 36°53' W 076°20'0 0.0
2018-Apr-22 20:29N 36°53' W 076°20'3 2.9
2018-Apr-22 19:29N 36°56' W 076°20'0 0.2
2018-Apr-22 17:38N 36°56' W 076°20'0 0.0
2018-Apr-22 17:29N 36°56' W 076°20'0 0.0
2018-Apr-22 16:11N 36°56' W 076°20'3 7.6
2018-Apr-22 15:49N 36°53' W 076°20'0 1.3
2018-Apr-22 15:30N 36°53' W 076°20'0 0.1
2018-Apr-22 14:38N 36°53' W 076°20'0 0.9
2018-Apr-22 14:30N 36°53' W 076°20'0 0.0
2018-Apr-22 14:00N 36°53' W 076°20'0 0.0
2018-Apr-22 13:30N 36°53' W 076°20'0 0.0
2018-Apr-22 13:00N 36°53' W 076°20'0 0.0
2018-Apr-22 12:30N 36°53' W 076°20'0 0.0
2018-Apr-22 12:00N 36°53' W 076°20'1 1.9
2018-Apr-22 11:30N 36°53' W 076°21'1 1.7
2018-Apr-22 10:56N 36°53' W 076°20'0 0.9
2018-Apr-22 10:30N 36°53' W 076°20'0 0.6
2018-Apr-22 10:00N 36°53' W 076°20'0 0.0
2018-Apr-22 09:30N 36°53' W 076°20'0 0.0
2018-Apr-22 09:00N 36°53' W 076°20'0 0.0
2018-Apr-22 08:30N 36°53' W 076°20'0 0.0
2018-Apr-22 08:00N 36°53' W 076°20'0 0.0
2018-Apr-22 07:30N 36°53' W 076°20'1 1.6
2018-Apr-22 06:54N 36°53' W 076°21'0 0.1
2018-Apr-22 06:30N 36°53' W 076°21'0 0.1
2018-Apr-22 06:00N 36°53' W 076°21'1 1.8
2018-Apr-22 05:30N 36°53' W 076°20'0 0.0
2018-Apr-22 04:51N 36°53' W 076°20'1 3.8
2018-Apr-22 04:28N 36°54' W 076°20'1 1.3
2018-Apr-22 04:00N 36°54' W 076°20'0 0.1
2018-Apr-22 03:30N 36°54' W 076°20'1 1.4
2018-Apr-22 03:00N 36°55' W 076°20'1 0.3
2018-Apr-22 00:19N 36°56' W 076°20'0 0.1
2018-Apr-21 15:51N 36°55' W 076°20'0 0.1
2018-Apr-21 15:30N 36°55' W 076°20'1 1.3
2018-Apr-21 15:01N 36°56' W 076°20'3 1.2
2018-Apr-21 12:34N 36°53' W 076°20'0 6.7
2018-Apr-21 12:30N 36°53' W 076°20'3 6.6
2018-Apr-21 12:00N 36°50' W 076°18'2 3.6
2018-Apr-21 11:30N 36°48' W 076°17'0 0.1
2018-Apr-21 11:01N 36°48' W 076°17'2 3.5
2018-Apr-21 10:30N 36°50' W 076°18'3 5.3
2018-Apr-21 09:55N 36°52' W 076°20'0 1.0
2018-Apr-21 09:30N 36°53' W 076°20'0 0.0
2018-Apr-21 08:59N 36°53' W 076°20'0 0.0
2018-Apr-21 07:55N 36°53' W 076°20'3 7.0
2018-Apr-21 07:30N 36°51' W 076°17'1 1.8
2018-Apr-21 07:00N 36°50' W 076°16'0 0.0
2018-Apr-21 06:30N 36°50' W 076°16'0 0.0
2018-Apr-21 06:00N 36°50' W 076°16'0 0.0
2018-Apr-21 05:30N 36°50' W 076°16'0 0.0
2018-Apr-21 05:00N 36°50' W 076°16'0 0.4
2018-Apr-21 04:30N 36°50' W 076°17'0 0.0
2018-Apr-21 04:00N 36°50' W 076°17'2 3.2
2018-Apr-21 03:30N 36°51' W 076°18'2 4.0
2018-Apr-21 03:00N 36°53' W 076°20'0 0.1
2018-Apr-21 02:30N 36°53' W 076°20'0 0.2
2018-Apr-21 01:48N 36°53' W 076°20'0 0.2
2018-Apr-21 01:30N 36°53' W 076°20'0 0.0
2018-Apr-21 01:00N 36°53' W 076°20'0 0.0
2018-Apr-21 00:30N 36°53' W 076°20'0 0.0
2018-Apr-21 00:00N 36°53' W 076°20'0 0.0
2018-Apr-20 23:30N 36°53' W 076°20'0 0.0
2018-Apr-20 23:00N 36°53' W 076°20'1 2.2
2018-Apr-20 22:30N 36°52' W 076°19'0 0.4
2018-Apr-20 21:55N 36°52' W 076°19'1 3.1
2018-Apr-20 21:30N 36°53' W 076°20'0 0.4
2018-Apr-20 20:59N 36°53' W 076°20'1 3.0
2018-Apr-20 20:30N 36°52' W 076°19'2 4.8
2018-Apr-20 20:00N 36°50' W 076°16'0 0.1
2018-Apr-20 19:30N 36°50' W 076°16'0 0.0
2018-Apr-20 19:00N 36°50' W 076°16'0 0.0
2018-Apr-20 18:30N 36°50' W 076°16'0 0.0
2018-Apr-20 18:00N 36°50' W 076°16'0 0.0
2018-Apr-20 17:30N 36°50' W 076°16'0 0.0
2018-Apr-20 17:00N 36°50' W 076°16'2 3.8
2018-Apr-20 16:30N 36°51' W 076°18'5 8.3
2018-Apr-20 15:57N 36°56' W 076°20'0 0.2
2018-Apr-20 15:09N 36°56' W 076°20'2 1.0
2018-Apr-20 13:20N 36°54' W 076°20'2 6.7
2018-Apr-20 13:00N 36°52' W 076°19'2 3.6
2018-Apr-20 12:30N 36°51' W 076°18'1 2.8
2018-Apr-20 12:00N 36°49' W 076°18'2 4.6
2018-Apr-20 11:30N 36°51' W 076°19'5 5.2
2018-Apr-20 10:37N 36°56' W 076°20'0 1.6
2018-Apr-20 10:30N 36°56' W 076°20'0 0.2
2018-Apr-20 08:44N 36°56' W 076°20'2 0.4
2018-Apr-20 02:37N 36°53' W 076°20'0 0.4
2018-Apr-20 01:17N 36°53' W 076°20'2 3.4
2018-Apr-20 00:43N 36°55' W 076°20'0 1.1
2018-Apr-20 00:25N 36°55' W 076°20'1 1.3
2018-Apr-19 23:53N 36°54' W 076°20'3 7.1
2018-Apr-19 23:30N 36°52' W 076°19'0 0.3
2018-Apr-19 23:00N 36°52' W 076°19'0 0.9
2018-Apr-19 22:30N 36°51' W 076°19'1 1.9
2018-Apr-19 21:43N 36°53' W 076°20'0 0.2
2018-Apr-19 21:24N 36°53' W 076°20'2 3.0
2018-Apr-19 20:45N 36°55' W 076°20'0 0.1
2018-Apr-19 20:08N 36°55' W 076°20'0 0.3
2018-Apr-19 18:59N 36°55' W 076°20'2 3.3
2018-Apr-19 18:25N 36°53' W 076°20'3 8.0
2018-Apr-19 18:00N 36°50' W 076°18'3 5.5
2018-Apr-19 17:30N 36°48' W 076°18'1 2.3
2018-Apr-19 17:00N 36°46' W 076°18'3 5.2
2018-Apr-19 16:30N 36°49' W 076°17'5 9.5
2018-Apr-19 16:00N 36°53' W 076°20'2 0.5
2018-Apr-19 11:38N 36°55' W 076°20'0 1.6
2018-Apr-19 11:23N 36°56' W 076°20'0 0.6
2018-Apr-19 11:00N 36°55' W 076°20'3 6.0
2018-Apr-19 10:30N 36°53' W 076°21'2 1.7
2018-Apr-19 09:34N 36°54' W 076°20'1 7.1
2018-Apr-19 09:27N 36°55' W 076°20'2 4.9
2018-Apr-19 09:00N 36°53' W 076°20'0 0.0
2018-Apr-19 08:30N 36°53' W 076°20'0 0.0
2018-Apr-19 08:00N 36°53' W 076°20'0 0.0
2018-Apr-19 07:30N 36°53' W 076°20'0 0.0
2018-Apr-19 07:00N 36°53' W 076°20'0 0.0
2018-Apr-19 06:30N 36°53' W 076°20'0 0.0
2018-Apr-19 06:00N 36°53' W 076°20'0 0.2
2018-Apr-19 04:58N 36°53' W 076°20'0 0.6
2018-Apr-19 04:27N 36°53' W 076°20'0 0.9
2018-Apr-19 03:55N 36°53' W 076°20'2 0.4
2018-Apr-18 22:11N 36°55' W 076°20'0 0.0
2018-Apr-18 22:00N 36°55' W 076°20'0 0.6
2018-Apr-18 21:25N 36°56' W 076°20'0 0.2
2018-Apr-18 20:20N 36°56' W 076°20'3 2.9
2018-Apr-18 19:28N 36°53' W 076°20'1 0.7
2018-Apr-18 18:46N 36°53' W 076°20'0 0.8
2018-Apr-18 18:29N 36°53' W 076°20'0 0.0
2018-Apr-18 18:00N 36°53' W 076°20'0 0.2
2018-Apr-18 17:06N 36°53' W 076°20'0 0.0
2018-Apr-18 17:00N 36°53' W 076°20'1 2.7
2018-Apr-18 16:31N 36°52' W 076°19'2 3.7
2018-Apr-18 16:00N 36°50' W 076°17'1 1.1
2018-Apr-18 15:26N 36°50' W 076°16'0 0.0
2018-Apr-18 15:00N 36°50' W 076°16'0 0.0
2018-Apr-18 14:30N 36°50' W 076°16'0 0.0
2018-Apr-18 14:00N 36°50' W 076°16'0 0.0
2018-Apr-18 13:30N 36°50' W 076°16'0 0.0
2018-Apr-18 13:00N 36°50' W 076°16'0 0.0
2018-Apr-18 12:30N 36°50' W 076°16'0 0.0
2018-Apr-18 12:00N 36°50' W 076°16'1 1.1
2018-Apr-18 11:30N 36°50' W 076°17'4 7.8
2018-Apr-18 11:00N 36°53' W 076°20'1 2.5
2018-Apr-18 10:30N 36°55' W 076°20'2 2.0
2018-Apr-18 09:35N 36°56' W 076°20'4 8.3
2018-Apr-18 09:07N 36°53' W 076°20'111.0
2018-Apr-18 09:00N 36°52' W 076°19'2 4.8
2018-Apr-18 08:30N 36°50' W 076°16'0 0.2
2018-Apr-18 08:00N 36°50' W 076°16'0 0.0
2018-Apr-18 07:30N 36°50' W 076°16'0 0.0
2018-Apr-18 07:00N 36°50' W 076°16'0 0.0
2018-Apr-18 06:30N 36°50' W 076°16'0 0.0
2018-Apr-18 06:00N 36°50' W 076°16'0 0.0
2018-Apr-18 05:30N 36°50' W 076°16'0 0.0
2018-Apr-18 05:00N 36°50' W 076°16'0 0.0
2018-Apr-18 04:30N 36°50' W 076°16'0 0.0
2018-Apr-18 04:00N 36°50' W 076°16'0 0.0
2018-Apr-18 03:30N 36°50' W 076°16'0 0.0
2018-Apr-18 03:00N 36°50' W 076°16'0 0.0
2018-Apr-18 02:30N 36°50' W 076°16'0 0.0
2018-Apr-18 02:00N 36°50' W 076°16'1 2.8
2018-Apr-18 01:30N 36°49' W 076°17'1 2.6
2018-Apr-18 01:00N 36°48' W 076°17'0 0.1
2018-Apr-18 00:30N 36°48' W 076°17'0 0.0
2018-Apr-18 00:01N 36°48' W 076°17'4 7.2
2018-Apr-17 23:30N 36°52' W 076°19'0 0.5
2018-Apr-17 22:51N 36°52' W 076°19'0 0.5
2018-Apr-17 22:30N 36°52' W 076°19'1 2.0
2018-Apr-17 21:54N 36°53' W 076°20'1 3.2
2018-Apr-17 21:30N 36°52' W 076°19'0 0.2
2018-Apr-17 20:11N 36°51' W 076°20'0 2.5
2018-Apr-17 20:00N 36°52' W 076°19'1 0.8
2018-Apr-17 18:41N 36°53' W 076°20'0 0.0
2018-Apr-17 14:43N 36°53' W 076°20'2 9.5
2018-Apr-17 14:29N 36°51' W 076°18'2 4.2
2018-Apr-17 14:00N 36°49' W 076°17'0 0.0
2018-Apr-17 13:30N 36°49' W 076°17'0 0.0
2018-Apr-17 13:00N 36°49' W 076°17'0 0.0
2018-Apr-17 12:30N 36°49' W 076°17'0 0.0
2018-Apr-17 12:00N 36°49' W 076°17'0 0.0
2018-Apr-17 11:30N 36°49' W 076°17'0 0.0
2018-Apr-17 11:00N 36°49' W 076°17'3 5.8
2018-Apr-17 10:28N 36°52' W 076°19'1 1.5
2018-Apr-17 09:47N 36°53' W 076°20'0 0.3
2018-Apr-17 09:30N 36°53' W 076°20'3 5.2
2018-Apr-17 08:55N 36°56' W 076°20'0 0.6
2018-Apr-17 08:30N 36°56' W 076°20'0 0.0
2018-Apr-17 08:00N 36°56' W 076°20'0 0.0
2018-Apr-17 07:30N 36°56' W 076°20'0 0.0
2018-Apr-17 07:00N 36°56' W 076°20'0 0.0
2018-Apr-17 06:27N 36°56' W 076°20'1 1.7
2018-Apr-17 05:56N 36°55' W 076°20'1 1.8
2018-Apr-17 05:30N 36°55' W 076°20'2 2.3
2018-Apr-17 04:51N 36°53' W 076°20'0 0.9
2018-Apr-17 04:30N 36°53' W 076°20'0 0.0
2018-Apr-17 04:00N 36°53' W 076°20'0 0.0
2018-Apr-17 03:30N 36°53' W 076°20'0 0.0
2018-Apr-17 03:00N 36°53' W 076°20'0 0.0
2018-Apr-17 02:30N 36°53' W 076°20'0 0.0
2018-Apr-17 02:00N 36°53' W 076°20'0 0.0
2018-Apr-17 01:30N 36°53' W 076°20'0 0.0
2018-Apr-17 01:00N 36°53' W 076°20'0 0.0
2018-Apr-17 00:30N 36°53' W 076°20'1 2.5
2018-Apr-17 00:00N 36°52' W 076°19'0 0.1
2018-Apr-16 23:18N 36°52' W 076°19'1 3.1
2018-Apr-16 22:59N 36°52' W 076°20'0 0.6
2018-Apr-16 22:25N 36°53' W 076°20'0 0.0
2018-Apr-16 20:41N 36°53' W 076°20'0 0.5
2018-Apr-16 20:29N 36°53' W 076°20'1 2.2
2018-Apr-16 19:54N 36°52' W 076°19'3 7.2
2018-Apr-16 19:30N 36°49' W 076°17'2 4.9
2018-Apr-16 19:00N 36°47' W 076°19'1 1.1
2018-Apr-16 18:30N 36°47' W 076°18'0 0.1
2018-Apr-16 18:00N 36°47' W 076°18'3 5.4
2018-Apr-16 17:30N 36°49' W 076°17'1 2.9
2018-Apr-16 17:00N 36°50' W 076°16'1 1.1
2018-Apr-16 16:27N 36°50' W 076°17'4 7.8
2018-Apr-16 16:00N 36°53' W 076°20'2 2.2
2018-Apr-16 15:11N 36°55' W 076°20'2 5.4
2018-Apr-16 14:49N 36°57' W 076°20'4 3.6
2018-Apr-16 13:39N 36°53' W 076°20'0 0.2
2018-Apr-16 11:54N 36°53' W 076°20'0 0.3
2018-Apr-16 11:14N 36°53' W 076°20'0 0.3
2018-Apr-16 11:00N 36°53' W 076°20'2 1.1
2018-Apr-16 09:05N 36°55' W 076°20'0 4.5
2018-Apr-16 09:00N 36°55' W 076°20'0 0.6
2018-Apr-16 08:31N 36°55' W 076°20'0 0.4
2018-Apr-16 08:00N 36°55' W 076°20'0 0.0
2018-Apr-16 07:30N 36°55' W 076°20'0 0.0
2018-Apr-16 07:00N 36°55' W 076°20'1 1.7
2018-Apr-16 06:24N 36°56' W 076°20'3 1.3
2018-Apr-16 04:09N 36°53' W 076°20'0 0.8
2018-Apr-16 03:54N 36°53' W 076°20'0 0.1
2018-Apr-16 03:29N 36°53' W 076°20'2 3.5
2018-Apr-16 02:49N 36°55' W 076°20'1 0.2
2018-Apr-15 23:22N 36°56' W 076°20'0 1.2
2018-Apr-15 23:00N 36°55' W 076°20'  
Track history (hours):
 
Tides and Currents Weather Stations Pressure Air Temp Water Temp Dewpoint Dewpoint Depression Visibility Wind Speed Wind Dir Waves Ship Positions

Jack T. Moran

Owner: Moran Towing Corporation, New Canaan, CT. More information available from US FCC via Universal Licensing System and Coast Guard Vessel Documentation Center.

Last reported at 2018-Apr-25 22:43 UTC. Time now 2018-Apr-26 03:24 UTC.
Position N 36°56' W 076°20'.

Length 28 m; draft 5 m.

Type: Tug. MMSI: 367724460.

Date/timePositionNaut miles runAvg speedWind from/ knotsBaromVisibWave heightAir tempDewpointWater temp
2018-Apr-25 22:43N 36°56' W 076°20'0 1.8
2018-Apr-25 22:30N 36°55' W 076°20'0 0.0
2018-Apr-25 22:00N 36°55' W 076°20'1 1.6
2018-Apr-25 21:29N 36°55' W 076°20'1 2.5
2018-Apr-25 20:52N 36°56' W 076°20'1 0.7
2018-Apr-25 20:04N 36°56' W 076°20'3 6.4
2018-Apr-25 19:35N 36°52' W 076°20'1 9.2
2018-Apr-25 19:28N 36°52' W 076°19'3 5.6
2018-Apr-25 19:00N 36°50' W 076°16'0 0.0
2018-Apr-25 18:30N 36°50' W 076°16'0 0.0
2018-Apr-25 18:00N 36°50' W 076°16'0 0.0
2018-Apr-25 17:30N 36°50' W 076°16'0 0.0
2018-Apr-25 17:00N 36°50' W 076°16'0 0.0
2018-Apr-25 16:30N 36°50' W 076°16'0 0.0
2018-Apr-25 16:00N 36°50' W 076°16'0 0.0
2018-Apr-25 15:30N 36°50' W 076°16'0 0.0
2018-Apr-25 15:00N 36°50' W 076°16'0 0.0
2018-Apr-25 14:30N 36°50' W 076°16'0 0.0
2018-Apr-25 14:00N 36°50' W 076°16'0 0.0
2018-Apr-25 13:30N 36°50' W 076°16'0 0.0
2018-Apr-25 13:00N 36°50' W 076°16'0 0.0
2018-Apr-25 12:30N 36°50' W 076°16'0 0.0
2018-Apr-25 12:00N 36°50' W 076°16'3 6.9
2018-Apr-25 11:30N 36°52' W 076°20'0 0.9
2018-Apr-25 11:00N 36°53' W 076°20'2 1.2
2018-Apr-25 09:04N 36°55' W 076°20'0 4.0
2018-Apr-25 08:59N 36°55' W 076°20'2 2.1
2018-Apr-25 08:05N 36°53' W 076°20'0 3.7
2018-Apr-25 08:00N 36°53' W 076°20'1 1.1
2018-Apr-25 07:24N 36°53' W 076°21'1 2.7
2018-Apr-25 07:00N 36°53' W 076°20'0 0.1
2018-Apr-25 06:24N 36°53' W 076°20'0 0.0
2018-Apr-25 05:46N 36°53' W 076°20'0 0.0
2018-Apr-25 05:10N 36°53' W 076°20'0 0.0
2018-Apr-25 05:00N 36°53' W 076°20'0 0.0
2018-Apr-25 00:41N 36°53' W 076°20'0 0.0
2018-Apr-25 00:07N 36°53' W 076°20'0 0.0
2018-Apr-25 00:00N 36°53' W 076°20'0 0.0
2018-Apr-24 23:30N 36°53' W 076°20'0 0.0
2018-Apr-24 23:00N 36°53' W 076°20'0 0.0
2018-Apr-24 22:23N 36°53' W 076°20'0 0.0
2018-Apr-24 22:00N 36°53' W 076°20'0 0.0
2018-Apr-24 21:30N 36°53' W 076°20'0 0.0
2018-Apr-24 20:48N 36°53' W 076°20'0 0.0
2018-Apr-24 20:14N 36°53' W 076°20'1 0.8
2018-Apr-24 19:05N 36°54' W 076°20'1 7.1
2018-Apr-24 19:00N 36°54' W 076°20'2 0.6
2018-Apr-24 15:52N 36°56' W 076°20'0 0.1
2018-Apr-24 15:22N 36°56' W 076°20'0 0.0
2018-Apr-24 14:58N 36°56' W 076°20'0 0.0
2018-Apr-24 14:27N 36°56' W 076°20'0 0.0
2018-Apr-24 13:17N 36°56' W 076°20'0 0.0
2018-Apr-24 12:59N 36°56' W 076°20'0 0.0
2018-Apr-24 12:30N 36°56' W 076°20'0 0.0
2018-Apr-24 11:56N 36°56' W 076°20'0 0.0
2018-Apr-24 09:55N 36°56' W 076°20'0 0.8
2018-Apr-24 09:30N 36°56' W 076°20'0 0.9
2018-Apr-24 09:00N 36°56' W 076°20'1 0.1
2018-Apr-23 23:02N 36°55' W 076°20'1 2.6
2018-Apr-23 22:50N 36°55' W 076°20'0 0.4
2018-Apr-23 22:30N 36°55' W 076°20'0 0.0
2018-Apr-23 22:00N 36°55' W 076°20'1 2.2
2018-Apr-23 21:30N 36°56' W 076°20'0 0.1
2018-Apr-23 17:53N 36°56' W 076°20'3 4.7
2018-Apr-23 17:18N 36°53' W 076°20'1 1.6
2018-Apr-23 16:50N 36°54' W 076°20'1 1.3
2018-Apr-23 16:15N 36°53' W 076°20'1 5.7
2018-Apr-23 16:00N 36°52' W 076°19'2 4.8
2018-Apr-23 15:30N 36°50' W 076°16'0 0.0
2018-Apr-23 15:00N 36°50' W 076°16'0 0.0
2018-Apr-23 14:30N 36°50' W 076°16'0 0.0
2018-Apr-23 14:00N 36°50' W 076°16'0 0.0
2018-Apr-23 13:30N 36°50' W 076°16'0 0.0
2018-Apr-23 13:00N 36°50' W 076°16'0 0.0
2018-Apr-23 12:30N 36°50' W 076°16'0 0.0
2018-Apr-23 12:00N 36°50' W 076°16'1 1.3
2018-Apr-23 11:30N 36°50' W 076°17'4 6.2
2018-Apr-23 10:55N 36°53' W 076°21'0 0.0
2018-Apr-23 10:30N 36°52' W 076°21'0 0.5
2018-Apr-23 10:01N 36°53' W 076°21'2 4.4
2018-Apr-23 09:28N 36°55' W 076°20'2 1.8
2018-Apr-23 08:21N 36°53' W 076°20'3 7.3
2018-Apr-23 08:00N 36°51' W 076°18'1 3.0
2018-Apr-23 07:30N 36°50' W 076°16'0 0.0
2018-Apr-23 07:00N 36°50' W 076°16'0 0.0
2018-Apr-23 06:30N 36°50' W 076°16'0 0.0
2018-Apr-23 06:00N 36°50' W 076°16'0 0.0
2018-Apr-23 05:30N 36°50' W 076°16'0 0.0
2018-Apr-23 05:00N 36°50' W 076°16'0 0.0
2018-Apr-23 04:30N 36°50' W 076°16'0 0.0
2018-Apr-23 04:00N 36°50' W 076°16'0 0.0
2018-Apr-23 03:30N 36°50' W 076°16'0 0.0
2018-Apr-23 03:00N 36°50' W 076°16'0 0.0
2018-Apr-23 02:30N 36°50' W 076°16'0 0.0
2018-Apr-23 02:00N 36°50' W 076°16'0 0.0
2018-Apr-23 01:30N 36°50' W 076°16'0 0.0
2018-Apr-23 01:00N 36°50' W 076°16'0 0.0
2018-Apr-23 00:30N 36°50' W 076°16'0 0.0
2018-Apr-23 00:00N 36°50' W 076°16'0 0.0
2018-Apr-22 23:30N 36°50' W 076°16'0 0.0
2018-Apr-22 23:00N 36°50' W 076°16'0 0.0
2018-Apr-22 22:30N 36°50' W 076°16'0 0.0
2018-Apr-22 22:00N 36°50' W 076°16'2 4.1
2018-Apr-22 21:29N 36°51' W 076°19'2 2.2
2018-Apr-22 20:44N 36°53' W 076°20'0 0.0
2018-Apr-22 20:29N 36°53' W 076°20'3 2.9
2018-Apr-22 19:29N 36°56' W 076°20'0 0.2
2018-Apr-22 17:38N 36°56' W 076°20'0 0.0
2018-Apr-22 17:29N 36°56' W 076°20'0 0.0
2018-Apr-22 16:11N 36°56' W 076°20'3 7.6
2018-Apr-22 15:49N 36°53' W 076°20'0 1.3
2018-Apr-22 15:30N 36°53' W 076°20'0 0.1
2018-Apr-22 14:38N 36°53' W 076°20'0 0.9
2018-Apr-22 14:30N 36°53' W 076°20'0 0.0
2018-Apr-22 14:00N 36°53' W 076°20'0 0.0
2018-Apr-22 13:30N 36°53' W 076°20'0 0.0
2018-Apr-22 13:00N 36°53' W 076°20'0 0.0
2018-Apr-22 12:30N 36°53' W 076°20'0 0.0
2018-Apr-22 12:00N 36°53' W 076°20'1 1.9
2018-Apr-22 11:30N 36°53' W 076°21'1 1.7
2018-Apr-22 10:56N 36°53' W 076°20'0 0.9
2018-Apr-22 10:30N 36°53' W 076°20'0 0.6
2018-Apr-22 10:00N 36°53' W 076°20'0 0.0
2018-Apr-22 09:30N 36°53' W 076°20'0 0.0
2018-Apr-22 09:00N 36°53' W 076°20'0 0.0
2018-Apr-22 08:30N 36°53' W 076°20'0 0.0
2018-Apr-22 08:00N 36°53' W 076°20'0 0.0
2018-Apr-22 07:30N 36°53' W 076°20'1 1.6
2018-Apr-22 06:54N 36°53' W 076°21'0 0.1
2018-Apr-22 06:30N 36°53' W 076°21'0 0.1
2018-Apr-22 06:00N 36°53' W 076°21'1 1.8
2018-Apr-22 05:30N 36°53' W 076°20'0 0.0
2018-Apr-22 04:51N 36°53' W 076°20'1 3.8
2018-Apr-22 04:28N 36°54' W 076°20'1 1.3
2018-Apr-22 04:00N 36°54' W 076°20'0 0.1
2018-Apr-22 03:30N 36°54' W 076°20'1 1.4
2018-Apr-22 03:00N 36°55' W 076°20'1 0.3
2018-Apr-22 00:19N 36°56' W 076°20'0 0.1
2018-Apr-21 15:51N 36°55' W 076°20'0 0.1
2018-Apr-21 15:30N 36°55' W 076°20'1 1.3
2018-Apr-21 15:01N 36°56' W 076°20'3 1.2
2018-Apr-21 12:34N 36°53' W 076°20'0 6.7
2018-Apr-21 12:30N 36°53' W 076°20'3 6.6
2018-Apr-21 12:00N 36°50' W 076°18'2 3.6
2018-Apr-21 11:30N 36°48' W 076°17'0 0.1
2018-Apr-21 11:01N 36°48' W 076°17'2 3.5
2018-Apr-21 10:30N 36°50' W 076°18'3 5.3
2018-Apr-21 09:55N 36°52' W 076°20'0 1.0
2018-Apr-21 09:30N 36°53' W 076°20'0 0.0
2018-Apr-21 08:59N 36°53' W 076°20'0 0.0
2018-Apr-21 07:55N 36°53' W 076°20'3 7.0
2018-Apr-21 07:30N 36°51' W 076°17'1 1.8
2018-Apr-21 07:00N 36°50' W 076°16'0 0.0
2018-Apr-21 06:30N 36°50' W 076°16'0 0.0
2018-Apr-21 06:00N 36°50' W 076°16'0 0.0
2018-Apr-21 05:30N 36°50' W 076°16'0 0.0
2018-Apr-21 05:00N 36°50' W 076°16'0 0.4
2018-Apr-21 04:30N 36°50' W 076°17'0 0.0
2018-Apr-21 04:00N 36°50' W 076°17'2 3.2
2018-Apr-21 03:30N 36°51' W 076°18'2 4.0
2018-Apr-21 03:00N 36°53' W 076°20'0 0.1
2018-Apr-21 02:30N 36°53' W 076°20'0 0.2
2018-Apr-21 01:48N 36°53' W 076°20'0 0.2
2018-Apr-21 01:30N 36°53' W 076°20'0 0.0
2018-Apr-21 01:00N 36°53' W 076°20'0 0.0
2018-Apr-21 00:30N 36°53' W 076°20'0 0.0
2018-Apr-21 00:00N 36°53' W 076°20'0 0.0
2018-Apr-20 23:30N 36°53' W 076°20'0 0.0
2018-Apr-20 23:00N 36°53' W 076°20'1 2.2
2018-Apr-20 22:30N 36°52' W 076°19'0 0.4
2018-Apr-20 21:55N 36°52' W 076°19'1 3.1
2018-Apr-20 21:30N 36°53' W 076°20'0 0.4
2018-Apr-20 20:59N 36°53' W 076°20'1 3.0
2018-Apr-20 20:30N 36°52' W 076°19'2 4.8
2018-Apr-20 20:00N 36°50' W 076°16'0 0.1
2018-Apr-20 19:30N 36°50' W 076°16'0 0.0
2018-Apr-20 19:00N 36°50' W 076°16'0 0.0
2018-Apr-20 18:30N 36°50' W 076°16'0 0.0
2018-Apr-20 18:00N 36°50' W 076°16'0 0.0
2018-Apr-20 17:30N 36°50' W 076°16'0 0.0
2018-Apr-20 17:00N 36°50' W 076°16'2 3.8
2018-Apr-20 16:30N 36°51' W 076°18'5 8.3
2018-Apr-20 15:57N 36°56' W 076°20'0 0.2
2018-Apr-20 15:09N 36°56' W 076°20'2 1.0
2018-Apr-20 13:20N 36°54' W 076°20'2 6.7
2018-Apr-20 13:00N 36°52' W 076°19'2 3.6
2018-Apr-20 12:30N 36°51' W 076°18'1 2.8
2018-Apr-20 12:00N 36°49' W 076°18'2 4.6
2018-Apr-20 11:30N 36°51' W 076°19'5 5.2
2018-Apr-20 10:37N 36°56' W 076°20'0 1.6
2018-Apr-20 10:30N 36°56' W 076°20'0 0.2
2018-Apr-20 08:44N 36°56' W 076°20'2 0.4
2018-Apr-20 02:37N 36°53' W 076°20'0 0.4
2018-Apr-20 01:17N 36°53' W 076°20'2 3.4
2018-Apr-20 00:43N 36°55' W 076°20'0 1.1
2018-Apr-20 00:25N 36°55' W 076°20'1 1.3
2018-Apr-19 23:53N 36°54' W 076°20'3 7.1
2018-Apr-19 23:30N 36°52' W 076°19'0 0.3
2018-Apr-19 23:00N 36°52' W 076°19'0 0.9
2018-Apr-19 22:30N 36°51' W 076°19'1 1.9
2018-Apr-19 21:43N 36°53' W 076°20'0 0.2
2018-Apr-19 21:24N 36°53' W 076°20'2 3.0
2018-Apr-19 20:45N 36°55' W 076°20'0 0.1
2018-Apr-19 20:08N 36°55' W 076°20'0 0.3
2018-Apr-19 18:59N 36°55' W 076°20'2 3.3
2018-Apr-19 18:25N 36°53' W 076°20'3 8.0
2018-Apr-19 18:00N 36°50' W 076°18'3 5.5
2018-Apr-19 17:30N 36°48' W 076°18'1 2.3
2018-Apr-19 17:00N 36°46' W 076°18'3 5.2
2018-Apr-19 16:30N 36°49' W 076°17'5 9.5
2018-Apr-19 16:00N 36°53' W 076°20'2 0.5
2018-Apr-19 11:38N 36°55' W 076°20'0 1.6
2018-Apr-19 11:23N 36°56' W 076°20'0 0.6
2018-Apr-19 11:00N 36°55' W 076°20'3 6.0
2018-Apr-19 10:30N 36°53' W 076°21'2 1.7
2018-Apr-19 09:34N 36°54' W 076°20'1 7.1
2018-Apr-19 09:27N 36°55' W 076°20'2 4.9
2018-Apr-19 09:00N 36°53' W 076°20'0 0.0
2018-Apr-19 08:30N 36°53' W 076°20'0 0.0
2018-Apr-19 08:00N 36°53' W 076°20'0 0.0
2018-Apr-19 07:30N 36°53' W 076°20'0 0.0
2018-Apr-19 07:00N 36°53' W 076°20'0 0.0
2018-Apr-19 06:30N 36°53' W 076°20'0 0.0
2018-Apr-19 06:00N 36°53' W 076°20'0 0.2
2018-Apr-19 04:58N 36°53' W 076°20'0 0.6
2018-Apr-19 04:27N 36°53' W 076°20'0 0.9
2018-Apr-19 03:55N 36°53' W 076°20'2 0.4
2018-Apr-18 22:11N 36°55' W 076°20'0 0.0
2018-Apr-18 22:00N 36°55' W 076°20'0 0.6
2018-Apr-18 21:25N 36°56' W 076°20'0 0.2
2018-Apr-18 20:20N 36°56' W 076°20'3 2.9
2018-Apr-18 19:28N 36°53' W 076°20'1 0.7
2018-Apr-18 18:46N 36°53' W 076°20'0 0.8
2018-Apr-18 18:29N 36°53' W 076°20'0 0.0
2018-Apr-18 18:00N 36°53' W 076°20'0 0.2
2018-Apr-18 17:06N 36°53' W 076°20'0 0.0
2018-Apr-18 17:00N 36°53' W 076°20'1 2.7
2018-Apr-18 16:31N 36°52' W 076°19'2 3.7
2018-Apr-18 16:00N 36°50' W 076°17'1 1.1
2018-Apr-18 15:26N 36°50' W 076°16'0 0.0
2018-Apr-18 15:00N 36°50' W 076°16'0 0.0
2018-Apr-18 14:30N 36°50' W 076°16'0 0.0
2018-Apr-18 14:00N 36°50' W 076°16'0 0.0
2018-Apr-18 13:30N 36°50' W 076°16'0 0.0
2018-Apr-18 13:00N 36°50' W 076°16'0 0.0
2018-Apr-18 12:30N 36°50' W 076°16'0 0.0
2018-Apr-18 12:00N 36°50' W 076°16'1 1.1
2018-Apr-18 11:30N 36°50' W 076°17'4 7.8
2018-Apr-18 11:00N 36°53' W 076°20'1 2.5
2018-Apr-18 10:30N 36°55' W 076°20'2 2.0
2018-Apr-18 09:35N 36°56' W 076°20'4 8.3
2018-Apr-18 09:07N 36°53' W 076°20'111.0
2018-Apr-18 09:00N 36°52' W 076°19'2 4.8
2018-Apr-18 08:30N 36°50' W 076°16'0 0.2
2018-Apr-18 08:00N 36°50' W 076°16'0 0.0
2018-Apr-18 07:30N 36°50' W 076°16'0 0.0
2018-Apr-18 07:00N 36°50' W 076°16'0 0.0
2018-Apr-18 06:30N 36°50' W 076°16'0 0.0
2018-Apr-18 06:00N 36°50' W 076°16'0 0.0
2018-Apr-18 05:30N 36°50' W 076°16'0 0.0
2018-Apr-18 05:00N 36°50' W 076°16'0 0.0
2018-Apr-18 04:30N 36°50' W 076°16'0 0.0
2018-Apr-18 04:00N 36°50' W 076°16'0 0.0
2018-Apr-18 03:30N 36°50' W 076°16'0 0.0
2018-Apr-18 03:00N 36°50' W 076°16'0 0.0
2018-Apr-18 02:30N 36°50' W 076°16'0 0.0
2018-Apr-18 02:00N 36°50' W 076°16'1 2.8
2018-Apr-18 01:30N 36°49' W 076°17'1 2.6
2018-Apr-18 01:00N 36°48' W 076°17'0 0.1
2018-Apr-18 00:30N 36°48' W 076°17'0 0.0
2018-Apr-18 00:01N 36°48' W 076°17'4 7.2
2018-Apr-17 23:30N 36°52' W 076°19'0 0.5
2018-Apr-17 22:51N 36°52' W 076°19'0 0.5
2018-Apr-17 22:30N 36°52' W 076°19'1 2.0
2018-Apr-17 21:54N 36°53' W 076°20'1 3.2
2018-Apr-17 21:30N 36°52' W 076°19'0 0.2
2018-Apr-17 20:11N 36°51' W 076°20'0 2.5
2018-Apr-17 20:00N 36°52' W 076°19'1 0.8
2018-Apr-17 18:41N 36°53' W 076°20'0 0.0
2018-Apr-17 14:43N 36°53' W 076°20'2 9.5
2018-Apr-17 14:29N 36°51' W 076°18'2 4.2
2018-Apr-17 14:00N 36°49' W 076°17'0 0.0
2018-Apr-17 13:30N 36°49' W 076°17'0 0.0
2018-Apr-17 13:00N 36°49' W 076°17'0 0.0
2018-Apr-17 12:30N 36°49' W 076°17'0 0.0
2018-Apr-17 12:00N 36°49' W 076°17'0 0.0
2018-Apr-17 11:30N 36°49' W 076°17'0 0.0
2018-Apr-17 11:00N 36°49' W 076°17'3 5.8
2018-Apr-17 10:28N 36°52' W 076°19'1 1.5
2018-Apr-17 09:47N 36°53' W 076°20'0 0.3
2018-Apr-17 09:30N 36°53' W 076°20'3 5.2
2018-Apr-17 08:55N 36°56' W 076°20'0 0.6
2018-Apr-17 08:30N 36°56' W 076°20'0 0.0
2018-Apr-17 08:00N 36°56' W 076°20'0 0.0
2018-Apr-17 07:30N 36°56' W 076°20'0 0.0
2018-Apr-17 07:00N 36°56' W 076°20'0 0.0
2018-Apr-17 06:27N 36°56' W 076°20'1 1.7
2018-Apr-17 05:56N 36°55' W 076°20'1 1.8
2018-Apr-17 05:30N 36°55' W 076°20'2 2.3
2018-Apr-17 04:51N 36°53' W 076°20'0 0.9
2018-Apr-17 04:30N 36°53' W 076°20'0 0.0
2018-Apr-17 04:00N 36°53' W 076°20'0 0.0
2018-Apr-17 03:30N 36°53' W 076°20'0 0.0
2018-Apr-17 03:00N 36°53' W 076°20'0 0.0
2018-Apr-17 02:30N 36°53' W 076°20'0 0.0
2018-Apr-17 02:00N 36°53' W 076°20'0 0.0
2018-Apr-17 01:30N 36°53' W 076°20'0 0.0
2018-Apr-17 01:00N 36°53' W 076°20'0 0.0
2018-Apr-17 00:30N 36°53' W 076°20'1 2.5
2018-Apr-17 00:00N 36°52' W 076°19'0 0.1
2018-Apr-16 23:18N 36°52' W 076°19'1 3.1
2018-Apr-16 22:59N 36°52' W 076°20'0 0.6
2018-Apr-16 22:25N 36°53' W 076°20'0 0.0
2018-Apr-16 20:41N 36°53' W 076°20'0 0.5
2018-Apr-16 20:29N 36°53' W 076°20'1 2.2
2018-Apr-16 19:54N 36°52' W 076°19'3 7.2
2018-Apr-16 19:30N 36°49' W 076°17'2 4.9
2018-Apr-16 19:00N 36°47' W 076°19'1 1.1
2018-Apr-16 18:30N 36°47' W 076°18'0 0.1
2018-Apr-16 18:00N 36°47' W 076°18'3 5.4
2018-Apr-16 17:30N 36°49' W 076°17'1 2.9
2018-Apr-16 17:00N 36°50' W 076°16'1 1.1
2018-Apr-16 16:27N 36°50' W 076°17'4 7.8
2018-Apr-16 16:00N 36°53' W 076°20'2 2.2
2018-Apr-16 15:11N 36°55' W 076°20'2 5.4
2018-Apr-16 14:49N 36°57' W 076°20'4 3.6
2018-Apr-16 13:39N 36°53' W 076°20'0 0.2
2018-Apr-16 11:54N 36°53' W 076°20'0 0.3
2018-Apr-16 11:14N 36°53' W 076°20'0 0.3
2018-Apr-16 11:00N 36°53' W 076°20'2 1.1
2018-Apr-16 09:05N 36°55' W 076°20'0 4.5
2018-Apr-16 09:00N 36°55' W 076°20'0 0.6
2018-Apr-16 08:31N 36°55' W 076°20'0 0.4
2018-Apr-16 08:00N 36°55' W 076°20'0 0.0
2018-Apr-16 07:30N 36°55' W 076°20'0 0.0
2018-Apr-16 07:00N 36°55' W 076°20'1 1.7
2018-Apr-16 06:24N 36°56' W 076°20'3 1.3
2018-Apr-16 04:09N 36°53' W 076°20'0 0.8
2018-Apr-16 03:54N 36°53' W 076°20'0 0.1
2018-Apr-16 03:29N 36°53' W 076°20'2 3.5
2018-Apr-16 02:49N 36°55' W 076°20'1 0.2
2018-Apr-15 23:22N 36°56' W 076°20'0 1.2
2018-Apr-15 23:00N 36°55' W 076°20'  

Dump ship's entire track history